Time;durP1;ratioP1;P1;durP2;ratioP2;P2;SDS_P1;SDS_P2;PMS_P1;PMS_P2;Temp;Humidity;BMP_temperature;BMP_pressure;BME280_temperature;BME280_humidity;BME280_pressure;Samples;Min_cycle;Max_cycle;Signal;HPM_P1;HPM_P2
2021/12/24 00:00:26;;;;;;;10.95;6.93;;;;;;;10.14;60.76;96505.66;5001521;28;20642;-87
2021/12/24 00:02:54;;;;;;;10.88;6.85;;;;;;;10.18;59.84;96496.31;5009092;28;20521;-87
2021/12/24 00:05:20;;;;;;;12.95;7.22;;;;;;;10.03;61.12;96507.47;4982528;28;20624;-88
2021/12/24 00:07:46;;;;;;;10.57;6.70;;;;;;;10.27;60.28;96504.41;4997873;28;20203;-89
2021/12/24 00:10:12;;;;;;;10.02;5.70;;;;;;;10.28;60.42;96506.75;5012630;28;20096;-87
2021/12/24 00:12:42;;;;;;;11.52;6.65;;;;;;;10.41;59.78;96515.88;4990989;28;20307;-89
2021/12/24 00:15:26;;;;;;;9.88;6.13;;;;;;;10.09;61.22;96511.66;5012676;28;20180;-88
2021/12/24 00:17:59;;;;;;;11.20;7.05;;;;;;;9.98;61.59;96517.09;4990886;28;20192;-87
2021/12/24 00:36:31;;;;;;;12.77;8.05;;;;;;;10.23;60.78;96475.50;4988173;28;20211;-86
2021/12/24 00:38:57;;;;;;;10.93;6.53;;;;;;;10.34;60.97;96483.34;4974639;28;20685;-88
2021/12/24 00:41:22;;;;;;;12.43;6.93;;;;;;;10.33;60.23;96479.19;5009197;28;20262;-87
2021/12/24 00:43:47;;;;;;;12.95;7.35;;;;;;;10.42;60.47;96472.44;5002527;28;20398;-87
2021/12/24 00:46:13;;;;;;;10.73;6.90;;;;;;;10.24;60.59;96478.88;4984248;28;20645;-89
2021/12/24 00:48:38;;;;;;;10.07;6.72;;;;;;;10.52;60.22;96493.25;4981743;28;20311;-87
2021/12/24 00:56:09;;;;;;;11.30;6.80;;;;;;;10.21;60.68;96490.59;5011803;28;20211;-87
2021/12/24 00:58:36;;;;;;;9.80;6.13;;;;;;;10.54;59.87;96485.97;4982825;28;20228;-89
2021/12/24 01:01:02;;;;;;;12.32;7.25;;;;;;;10.55;59.84;96487.50;4998216;28;20319;-87
2021/12/24 01:03:27;;;;;;;11.95;7.07;;;;;;;10.51;60.24;96480.50;5010417;28;20189;-87
2021/12/24 01:05:53;;;;;;;10.82;6.60;;;;;;;10.47;60.83;96482.84;4979488;28;20270;-87
2021/12/24 01:08:19;;;;;;;12.95;6.72;;;;;;;10.68;60.14;96479.19;4997001;28;20200;-87
2021/12/24 01:10:47;;;;;;;13.65;8.05;;;;;;;10.62;59.95;96484.66;4990797;28;20764;-87
2021/12/24 01:13:15;;;;;;;12.23;7.43;;;;;;;10.57;60.18;96480.22;4986972;28;20692;-90
2021/12/24 01:15:53;;;;;;;10.70;7.88;;;;;;;10.45;60.85;96482.31;5011591;28;20716;-88
2021/12/24 01:18:30;;;;;;;12.18;6.75;;;;;;;10.61;60.56;96478.66;4977741;28;20639;-85
2021/12/24 01:26:12;;;;;;;10.88;6.43;;;;;;;10.73;60.42;96478.41;5002582;28;20203;-89
2021/12/24 01:44:34;;;;;;;10.70;7.57;;;;;;;10.86;60.41;96487.50;5009679;28;20179;-88
2021/12/24 01:47:02;;;;;;;12.23;7.13;;;;;;;10.85;60.11;96486.72;4995334;28;20361;-89
2021/12/24 01:49:28;;;;;;;11.20;7.03;;;;;;;10.88;60.83;96480.19;4981360;28;20377;-88
2021/12/24 01:51:53;;;;;;;10.32;7.55;;;;;;;10.90;60.63;96488.53;4990015;28;20320;-88
2021/12/24 01:54:19;;;;;;;11.95;7.30;;;;;;;10.67;61.62;96479.44;4980318;28;20789;-90
2021/12/24 01:56:50;;;;;;;11.27;7.32;;;;;;;10.74;61.38;96482.56;4983012;28;20268;-89
2021/12/24 01:59:15;;;;;;;12.02;7.88;;;;;;;10.87;61.17;96473.44;4951157;28;20571;-87
2021/12/24 02:01:41;;;;;;;11.18;7.25;;;;;;;10.87;61.61;96469.00;4993352;28;20197;-88
2021/12/24 02:04:11;;;;;;;11.98;7.40;;;;;;;10.74;62.04;96469.53;4978021;28;20205;-88
2021/12/24 02:06:38;;;;;;;11.25;6.97;;;;;;;10.86;61.53;96464.06;4992767;28;20366;-87
2021/12/24 02:09:04;;;;;;;10.63;6.78;;;;;;;10.98;61.09;96466.38;4989905;28;20202;-89
2021/12/24 02:11:37;;;;;;;12.55;8.40;;;;;;;10.77;61.82;96452.63;4996954;28;20214;-88
2021/12/24 02:14:04;;;;;;;11.50;7.43;;;;;;;10.78;61.99;96454.97;4966100;28;20238;-89
2021/12/24 02:29:59;;;;;;;11.52;7.40;;;;;;;10.73;63.27;96430.75;4989847;28;20290;-89
2021/12/24 02:32:24;;;;;;;13.23;7.35;;;;;;;10.66;63.41;96439.63;4975010;28;20214;-89
2021/12/24 02:34:50;;;;;;;12.88;8.23;;;;;;;10.52;63.16;96433.41;4976177;28;20555;-85
2021/12/24 02:37:17;;;;;;;11.38;7.57;;;;;;;10.61;62.97;96429.22;4995730;28;20771;-88
2021/12/24 02:39:42;;;;;;;14.77;8.40;;;;;;;10.73;63.01;96422.94;4982313;28;20073;-88
2021/12/24 02:42:16;;;;;;;13.68;9.15;;;;;;;10.62;63.94;96430.75;4988785;28;20261;-87
2021/12/24 02:44:42;;;;;;;14.43;8.18;;;;;;;10.76;63.37;96425.00;4986234;28;20216;-87
2021/12/24 02:55:00;;;;;;;13.40;8.60;;;;;;;10.59;64.26;96410.47;4976789;28;20664;-88
2021/12/24 02:57:30;;;;;;;14.57;9.13;;;;;;;10.44;64.59;96416.47;4966977;28;20164;-88
2021/12/24 03:00:06;;;;;;;16.33;9.55;;;;;;;10.58;64.04;96408.91;4990254;28;20096;-85
2021/12/24 03:02:31;;;;;;;14.50;8.52;;;;;;;10.37;64.67;96399.56;4961488;28;20673;-89
2021/12/24 03:04:57;;;;;;;13.55;8.45;;;;;;;10.76;63.46;96409.38;4973923;28;20175;-87
2021/12/24 03:07:22;;;;;;;16.20;9.20;;;;;;;10.74;63.72;96403.66;4986549;28;20184;-88
2021/12/24 03:09:48;;;;;;;15.02;8.82;;;;;;;10.56;63.51;96384.97;4988181;28;20160;-89
2021/12/24 03:12:15;;;;;;;14.40;9.95;;;;;;;10.64;63.66;96407.88;4980017;28;20177;-88
2021/12/24 03:14:40;;;;;;;15.98;9.85;;;;;;;10.86;63.32;96410.16;5004807;28;20699;-88
2021/12/24 03:17:13;;;;;;;16.00;9.57;;;;;;;10.67;63.72;96399.50;4983040;28;20172;-90
2021/12/24 03:19:39;;;;;;;14.05;9.32;;;;;;;10.54;64.27;96396.66;5002140;28;20262;-87
2021/12/24 03:24:35;;;;;;;13.63;9.40;;;;;;;10.67;63.32;96365.66;4996922;28;20235;-88
2021/12/24 03:27:01;;;;;;;15.77;10.38;;;;;;;10.68;63.64;96372.44;4960301;28;20253;-88
2021/12/24 03:29:27;;;;;;;12.60;8.15;;;;;;;10.75;63.46;96381.81;4967063;28;20362;-87
2021/12/24 03:31:52;;;;;;;16.05;9.80;;;;;;;10.66;64.06;96371.94;4987671;28;20239;-87
2021/12/24 03:34:20;;;;;;;14.23;9.82;;;;;;;10.58;63.40;96382.88;4974877;28;20301;-88
2021/12/24 03:36:46;;;;;;;15.25;9.15;;;;;;;10.71;63.58;96376.34;5005077;28;20260;-88
2021/12/24 03:39:12;;;;;;;13.80;8.85;;;;;;;10.63;64.23;96380.25;4971017;28;20275;-87
2021/12/24 03:41:38;;;;;;;15.82;9.90;;;;;;;10.49;64.41;96369.63;4980912;28;20205;-90
2021/12/24 03:44:04;;;;;;;13.98;8.85;;;;;;;10.51;64.44;96361.56;4967264;28;20139;-88
2021/12/24 03:46:42;;;;;;;15.23;9.55;;;;;;;10.78;63.57;96370.84;5007614;28;20288;-87
2021/12/24 03:49:17;;;;;;;19.30;10.35;;;;;;;10.58;64.02;96375.06;4974701;28;20365;-88
2021/12/24 03:57:10;;;;;;;18.80;10.93;;;;;;;10.92;62.89;96379.66;4997607;28;20197;-87
2021/12/24 03:59:35;;;;;;;15.02;8.75;;;;;;;10.87;63.28;96384.91;4983863;28;20297;-89
2021/12/24 04:02:01;;;;;;;15.60;9.35;;;;;;;10.87;63.60;96377.09;4962541;28;20215;-88
2021/12/24 04:04:26;;;;;;;15.50;9.35;;;;;;;10.73;63.52;96368.25;5001642;28;20194;-89
2021/12/24 04:06:52;;;;;;;16.05;9.85;;;;;;;10.79;63.17;96370.59;4994668;28;20668;-89
2021/12/24 04:09:18;;;;;;;19.45;10.00;;;;;;;10.75;62.91;96366.19;4982531;28;20216;-89
2021/12/24 04:11:43;;;;;;;16.00;10.07;;;;;;;10.79;63.22;96367.97;4982536;28;20275;-89
2021/12/24 04:14:08;;;;;;;14.95;9.63;;;;;;;10.77;63.24;96369.31;4996114;28;20259;-89
2021/12/24 04:16:34;;;;;;;15.60;9.35;;;;;;;10.80;63.42;96366.94;4993169;28;20189;-89
2021/12/24 04:27:15;;;;;;;12.90;8.23;;;;;;;10.84;62.69;96373.16;4987165;28;20185;-87
2021/12/24 04:29:40;;;;;;;16.60;9.80;;;;;;;10.94;62.95;96369.75;5014742;28;20146;-87
2021/12/24 04:32:11;;;;;;;12.75;8.45;;;;;;;10.86;62.86;96365.91;4990682;28;20258;-87
2021/12/24 04:34:38;;;;;;;13.80;8.60;;;;;;;10.83;62.53;96363.00;4984486;28;20453;-87
2021/12/24 04:50:57;;;;;;;15.18;9.07;;;;;;;10.84;63.10;96367.97;4992910;28;20644;-88
2021/12/24 05:01:14;;;;;;;14.20;8.23;;;;;;;10.83;63.24;96357.81;5001888;28;20228;-89
2021/12/24 05:02:11;;;;;;;14.27;7.95;;;;;;;11.04;62.29;96364.50;5002785;28;20149;-89
2021/12/24 05:04:46;;;;;;;10.38;7.78;;;;;;;10.88;63.05;96360.41;4986660;28;20287;-90
2021/12/24 05:07:44;;;;;;;12.25;8.27;;;;;;;10.96;62.15;96354.63;4969502;28;20227;-87
2021/12/24 05:10:04;;;;;;;16.33;8.25;;;;;;;10.90;62.96;96355.72;4978015;28;20172;-89
2021/12/24 05:12:34;;;;;;;13.55;7.93;;;;;;;11.03;62.01;96349.91;4990222;28;20390;-88
2021/12/24 05:15:00;;;;;;;12.80;7.72;;;;;;;11.08;62.21;96356.16;4975770;28;20233;-87
2021/12/24 05:17:34;;;;;;;12.20;7.07;;;;;;;10.89;62.75;96353.38;4992349;28;20205;-86
2021/12/24 05:22:44;;;;;;;12.50;8.07;;;;;;;11.05;62.07;96373.91;5010007;28;20350;-89
2021/12/24 05:25:10;;;;;;;12.82;6.93;;;;;;;10.99;62.18;96366.38;4977523;28;20255;-87
2021/12/24 05:27:36;;;;;;;11.55;7.82;;;;;;;10.88;61.99;96357.78;4994602;28;20184;-88
2021/12/24 05:30:03;;;;;;;15.07;8.20;;;;;;;10.87;62.77;96374.47;4988411;28;20203;-88
2021/12/24 05:32:30;;;;;;;12.63;8.63;;;;;;;10.98;62.43;96365.56;4973791;28;20182;-89
2021/12/24 05:34:56;;;;;;;13.10;7.70;;;;;;;10.98;62.14;96377.81;4985267;28;20245;-88
2021/12/24 05:37:21;;;;;;;12.02;7.53;;;;;;;11.01;62.01;96375.47;5007394;28;20210;-88
2021/12/24 05:39:48;;;;;;;12.45;7.57;;;;;;;11.01;62.15;96365.03;4999188;28;20359;-87
2021/12/24 05:42:13;;;;;;;11.50;7.07;;;;;;;11.00;61.72;96363.50;4995463;28;20100;-87
2021/12/24 05:44:39;;;;;;;12.18;6.70;;;;;;;11.04;61.75;96374.16;4990873;28;20269;-87
2021/12/24 05:47:04;;;;;;;13.95;7.55;;;;;;;11.12;61.44;96375.41;5016719;28;20194;-87
2021/12/24 05:49:30;;;;;;;14.27;7.15;;;;;;;11.15;61.16;96364.47;4990859;28;20183;-88
2021/12/24 05:51:55;;;;;;;11.07;6.75;;;;;;;11.10;61.56;96375.69;4982014;28;20710;-87
2021/12/24 05:54:20;;;;;;;11.82;6.93;;;;;;;10.81;62.05;96352.88;5011963;28;20240;-86
2021/12/24 05:56:46;;;;;;;13.77;8.00;;;;;;;10.97;62.00;96368.47;4980342;28;20113;-86
2021/12/24 05:59:12;;;;;;;11.23;7.55;;;;;;;10.89;61.74;96361.97;4972632;28;20208;-89
2021/12/24 06:01:37;;;;;;;12.35;7.57;;;;;;;11.09;61.40;96381.16;4993614;28;20352;-87
2021/12/24 06:04:05;;;;;;;11.90;7.20;;;;;;;11.01;61.44;96375.47;4964126;28;20617;-87
2021/12/24 06:06:31;;;;;;;13.27;7.68;;;;;;;10.90;61.27;96363.53;4997064;28;20185;-87
2021/12/24 06:08:56;;;;;;;11.70;6.80;;;;;;;10.95;61.84;96384.34;4960139;28;20104;-88
2021/12/24 06:11:22;;;;;;;11.00;6.97;;;;;;;11.04;61.76;96393.16;4971015;28;20525;-88
2021/12/24 06:13:52;;;;;;;12.13;7.07;;;;;;;11.20;60.83;96387.91;4976554;28;20130;-88
2021/12/24 06:16:18;;;;;;;10.25;6.35;;;;;;;11.14;61.24;96394.16;4981096;28;20164;-87
2021/12/24 06:18:44;;;;;;;10.57;7.68;;;;;;;11.13;60.99;96393.41;4990056;28;20254;-86
2021/12/24 06:21:09;;;;;;;11.55;7.18;;;;;;;11.03;61.86;96391.59;4960534;28;20736;-87
2021/12/24 06:23:37;;;;;;;10.73;6.07;;;;;;;10.95;61.73;96381.75;4995515;28;20310;-89
2021/12/24 06:26:03;;;;;;;10.10;6.78;;;;;;;10.86;62.18;96383.31;4971811;28;20342;-87
2021/12/24 06:28:29;;;;;;;10.95;7.95;;;;;;;11.08;62.05;96395.25;4980115;28;20180;-87
2021/12/24 06:30:55;;;;;;;11.02;7.00;;;;;;;10.98;61.97;96394.22;4974855;28;20056;-88
2021/12/24 06:33:21;;;;;;;10.93;7.55;;;;;;;10.93;61.86;96399.44;4971257;28;20182;-88
2021/12/24 06:35:46;;;;;;;11.48;6.63;;;;;;;11.15;60.92;96393.13;4990477;28;20197;-88
2021/12/24 06:38:12;;;;;;;12.05;7.40;;;;;;;11.17;61.53;96388.44;4963422;28;21354;-87
2021/12/24 06:40:37;;;;;;;11.43;7.20;;;;;;;11.25;61.00;96377.44;4981552;28;20679;-87
2021/12/24 06:43:03;;;;;;;12.32;6.78;;;;;;;11.04;61.59;96359.31;4972159;28;20266;-87
2021/12/24 06:45:29;;;;;;;11.38;7.07;;;;;;;11.11;61.41;96386.91;5009575;28;20233;-87
2021/12/24 06:47:56;;;;;;;11.02;6.82;;;;;;;11.09;61.66;96383.75;5015256;28;20316;-87
2021/12/24 06:50:23;;;;;;;11.27;6.90;;;;;;;11.14;61.38;96383.75;4960858;28;20176;-88
2021/12/24 06:52:49;;;;;;;11.52;7.22;;;;;;;11.11;61.16;96366.06;4985335;28;20241;-89
2021/12/24 06:55:15;;;;;;;12.02;7.93;;;;;;;11.20;61.35;96380.84;4997894;28;20323;-87
2021/12/24 06:57:42;;;;;;;14.02;7.63;;;;;;;11.34;60.86;96382.88;4987677;28;20205;-87
2021/12/24 07:00:10;;;;;;;12.95;6.85;;;;;;;11.30;61.04;96380.03;5002711;28;20265;-88
2021/12/24 07:02:35;;;;;;;12.10;7.70;;;;;;;11.25;61.07;96377.44;4991490;28;20210;-89
2021/12/24 07:05:01;;;;;;;12.85;9.32;;;;;;;11.16;61.52;96379.06;4991859;28;20630;-89
2021/12/24 07:07:26;;;;;;;14.20;7.75;;;;;;;11.09;61.66;96368.94;4967664;28;20710;-89
2021/12/24 07:09:51;;;;;;;12.80;7.00;;;;;;;11.08;62.12;96371.81;5000130;28;20245;-89
2021/12/24 07:12:17;;;;;;;12.40;7.38;;;;;;;11.00;62.09;96381.72;5000133;28;20618;-87
2021/12/24 07:14:42;;;;;;;12.73;7.43;;;;;;;10.93;61.75;96372.63;5002351;28;20213;-88
2021/12/24 07:17:09;;;;;;;18.52;8.98;;;;;;;10.88;61.92;96360.41;5005774;28;20353;-89
2021/12/24 07:19:34;;;;;;;10.20;6.93;;;;;;;11.02;62.00;96374.44;4961693;28;20205;-87
2021/12/24 07:22:00;;;;;;;13.95;7.53;;;;;;;10.87;62.89;96351.03;4969279;28;20652;-87
2021/12/24 07:24:26;;;;;;;13.77;8.25;;;;;;;10.84;63.11;96360.16;4961939;28;20274;-86
2021/12/24 07:26:51;;;;;;;17.23;8.55;;;;;;;11.03;61.92;96357.72;4993607;28;20725;-89
2021/12/24 07:29:17;;;;;;;12.80;7.70;;;;;;;10.89;62.27;96361.19;4981408;28;20357;-87
2021/12/24 07:31:42;;;;;;;12.18;7.35;;;;;;;10.90;62.31;96360.13;4968477;28;20205;-86
2021/12/24 07:34:08;;;;;;;11.35;7.40;;;;;;;10.95;62.65;96365.31;4972283;28;20096;-86
2021/12/24 07:36:33;;;;;;;11.80;7.50;;;;;;;10.83;62.71;96360.41;4979694;28;20356;-87
2021/12/24 07:38:58;;;;;;;13.70;8.07;;;;;;;10.87;62.38;96357.03;4981360;28;20220;-87
2021/12/24 07:41:25;;;;;;;13.23;8.07;;;;;;;10.83;62.35;96347.38;4984138;28;20692;-87
2021/12/24 07:43:51;;;;;;;14.52;7.55;;;;;;;11.01;62.95;96370.25;4987268;28;20202;-87
2021/12/24 07:46:16;;;;;;;12.18;8.05;;;;;;;10.93;62.69;96370.03;4987376;28;20268;-89
2021/12/24 07:48:48;;;;;;;13.40;7.25;;;;;;;10.87;63.16;96367.44;4987664;28;20186;-87
2021/12/24 07:54:00;;;;;;;15.88;7.75;;;;;;;10.77;62.55;96358.88;4982759;28;20147;-90
2021/12/24 07:56:30;;;;;;;11.77;7.07;;;;;;;10.90;62.91;96368.75;4984324;28;20602;-87
2021/12/24 07:58:56;;;;;;;13.23;8.02;;;;;;;11.03;62.57;96383.00;4978400;28;20178;-86
2021/12/24 08:01:25;;;;;;;12.68;7.38;;;;;;;10.75;63.39;96371.41;4967572;28;20203;-87
2021/12/24 08:03:55;;;;;;;11.98;8.20;;;;;;;10.71;63.25;96360.72;4971467;28;20097;-88
2021/12/24 08:06:23;;;;;;;12.60;7.95;;;;;;;10.81;62.76;96367.72;4989877;28;20074;-88
2021/12/24 08:08:49;;;;;;;12.10;7.68;;;;;;;10.92;62.99;96368.47;4982353;28;20212;-87
2021/12/24 08:11:14;;;;;;;12.90;7.53;;;;;;;10.82;63.13;96364.06;4978418;28;20179;-87
2021/12/24 08:13:40;;;;;;;13.45;8.35;;;;;;;10.98;62.97;96365.56;4994870;28;20529;-87
2021/12/24 08:16:06;;;;;;;14.57;8.23;;;;;;;10.77;63.67;96361.50;4981084;28;20624;-88
2021/12/24 08:18:31;;;;;;;11.75;8.23;;;;;;;10.95;63.43;96373.94;4972388;28;20658;-87
2021/12/24 08:20:57;;;;;;;13.75;8.85;;;;;;;10.84;63.78;96360.16;4956927;28;20219;-88
2021/12/24 08:23:22;;;;;;;14.55;9.07;;;;;;;10.76;63.88;96347.69;4981645;28;20265;-88
2021/12/24 08:25:48;;;;;;;16.10;9.23;;;;;;;10.89;63.57;96361.19;5000583;28;20207;-87
2021/12/24 08:28:13;;;;;;;13.68;9.13;;;;;;;10.94;63.01;96364.56;4992506;28;20252;-87
2021/12/24 08:30:39;;;;;;;14.13;9.23;;;;;;;10.77;63.96;96359.66;4997578;28;20213;-88
2021/12/24 08:33:05;;;;;;;13.02;9.48;;;;;;;10.98;63.70;96373.38;5002669;28;20357;-87
2021/12/24 08:35:30;;;;;;;14.43;8.60;;;;;;;10.74;63.84;96354.97;4983102;28;20283;-88
2021/12/24 08:37:56;;;;;;;13.68;8.88;;;;;;;11.03;63.16;96375.19;4996897;28;20279;-87
2021/12/24 08:40:21;;;;;;;15.77;8.88;;;;;;;10.90;63.53;96360.94;4992676;28;20285;-87
2021/12/24 08:42:47;;;;;;;13.75;8.80;;;;;;;10.93;63.64;96355.16;4984974;28;20254;-89
2021/12/24 08:45:13;;;;;;;15.52;9.23;;;;;;;10.93;63.59;96368.19;4993929;28;20085;-88
2021/12/24 08:47:38;;;;;;;20.00;10.27;;;;;;;10.95;63.41;96368.72;4964747;28;20100;-88
2021/12/24 08:50:06;;;;;;;15.52;9.25;;;;;;;10.86;63.65;96349.47;4977348;28;20513;-88
2021/12/24 08:52:32;;;;;;;16.02;8.90;;;;;;;10.95;63.93;96355.72;4978551;28;20222;-87
2021/12/24 08:54:58;;;;;;;22.73;10.50;;;;;;;10.70;64.05;96342.78;4967735;28;20248;-89
2021/12/24 08:57:23;;;;;;;14.27;8.35;;;;;;;10.89;63.70;96346.34;4961268;28;20269;-87
2021/12/24 08:59:49;;;;;;;14.90;8.32;;;;;;;10.83;63.98;96347.38;4986540;28;20648;-88
2021/12/24 09:02:16;;;;;;;14.63;9.52;;;;;;;10.90;63.42;96350.50;4964885;28;20298;-91
2021/12/24 09:04:42;;;;;;;15.65;8.68;;;;;;;10.98;63.61;96347.34;4968736;28;20289;-88
2021/12/24 09:07:07;;;;;;;15.23;8.73;;;;;;;11.08;62.66;96348.34;4979379;28;20138;-86
2021/12/24 09:09:32;;;;;;;14.40;9.18;;;;;;;10.95;63.20;96345.28;4969936;28;20187;-88
2021/12/24 09:11:58;;;;;;;13.88;9.32;;;;;;;11.02;63.65;96345.00;4974542;28;20159;-88
2021/12/24 09:14:25;;;;;;;15.10;9.52;;;;;;;10.84;63.67;96338.53;4981675;28;20693;-88
2021/12/24 09:16:50;;;;;;;14.98;9.55;;;;;;;10.71;64.78;96345.09;4969349;28;20305;-85
2021/12/24 09:19:22;;;;;;;17.83;10.23;;;;;;;10.81;64.22;96346.88;4993978;28;20361;-87
2021/12/24 09:21:47;;;;;;;15.80;9.23;;;;;;;10.85;64.16;96329.69;4957983;28;20277;-88
2021/12/24 09:24:12;;;;;;;15.52;9.60;;;;;;;11.03;63.60;96344.72;4969642;28;20291;-87
2021/12/24 09:26:39;;;;;;;19.17;9.45;;;;;;;11.05;63.95;96347.84;4980291;28;20182;-87
2021/12/24 09:29:07;;;;;;;14.23;8.80;;;;;;;11.11;63.47;96355.63;4986411;28;20384;-87
2021/12/24 09:31:32;;;;;;;16.60;9.68;;;;;;;10.95;64.11;96345.28;4970152;28;20297;-87
2021/12/24 09:33:58;;;;;;;16.70;9.30;;;;;;;11.07;63.64;96347.59;4978956;28;20245;-87
2021/12/24 09:36:26;;;;;;;15.35;9.07;;;;;;;10.79;64.19;96320.34;4955488;28;20271;-87
2021/12/24 09:39:01;;;;;;;14.35;9.02;;;;;;;10.82;63.99;96330.22;4963457;28;20299;-87
2021/12/24 09:41:26;;;;;;;15.65;9.75;;;;;;;10.94;63.85;96335.13;4974319;28;20275;-87
2021/12/24 09:43:52;;;;;;;16.45;10.23;;;;;;;10.87;64.39;96343.22;4960005;28;20698;-88
2021/12/24 09:46:18;;;;;;;15.35;9.35;;;;;;;11.00;64.26;96339.25;4957674;28;20283;-88
2021/12/24 09:48:43;;;;;;;14.13;8.65;;;;;;;10.79;64.62;96330.75;4992406;28;20181;-87
2021/12/24 09:51:09;;;;;;;15.50;8.90;;;;;;;10.96;64.50;96346.81;4980591;28;20192;-88
2021/12/24 09:53:36;;;;;;;12.75;8.38;;;;;;;10.97;63.89;96337.97;4981337;28;20249;-86
2021/12/24 09:56:04;;;;;;;12.77;7.85;;;;;;;11.11;63.76;96342.63;4983103;28;20214;-87
2021/12/24 09:58:29;;;;;;;13.02;7.88;;;;;;;11.16;64.25;96342.59;5006060;28;20216;-88
2021/12/24 10:00:55;;;;;;;13.13;7.85;;;;;;;11.09;64.33;96350.69;5010052;28;20615;-88
2021/12/24 10:03:29;;;;;;;12.57;7.63;;;;;;;10.99;64.06;96351.50;4958388;28;20714;-88
2021/12/24 10:05:54;;;;;;;9.63;7.15;;;;;;;11.14;63.48;96339.44;4954189;28;20678;-86
2021/12/24 10:08:22;;;;;;;10.63;7.65;;;;;;;11.15;63.96;96328.75;4970589;28;20163;-87
2021/12/24 10:10:51;;;;;;;10.73;7.10;;;;;;;11.17;63.54;96331.91;4971469;28;20271;-87
2021/12/24 10:13:34;;;;;;;12.05;7.45;;;;;;;11.14;63.75;96337.66;4970452;28;20205;-87
2021/12/24 10:16:05;;;;;;;12.15;7.57;;;;;;;11.00;64.29;96334.03;5004784;28;20687;-88
2021/12/24 10:18:42;;;;;;;11.25;7.28;;;;;;;11.18;63.89;96335.28;4984528;28;20252;-88
2021/12/24 10:21:09;;;;;;;11.07;7.90;;;;;;;11.28;63.73;96329.25;4976949;28;20193;-88
2021/12/24 10:23:53;;;;;;;11.55;6.95;;;;;;;11.12;63.64;96334.53;4964780;28;20661;-86
2021/12/24 10:26:26;;;;;;;9.30;6.50;;;;;;;11.20;64.24;96322.75;4970660;28;20111;-88
2021/12/24 10:29:13;;;;;;;10.60;7.07;;;;;;;11.02;63.87;96317.13;4975352;28;20266;-87
2021/12/24 10:31:50;;;;;;;9.73;6.38;;;;;;;10.89;64.44;96317.69;4949507;28;20168;-88
2021/12/24 10:34:30;;;;;;;8.52;5.82;;;;;;;10.99;64.36;96330.66;4988116;28;20425;-88
2021/12/24 10:36:57;;;;;;;10.55;7.30;;;;;;;11.21;63.51;96319.88;4986876;28;20225;-87
2021/12/24 10:39:36;;;;;;;9.15;6.60;;;;;;;11.18;63.81;96314.44;5016159;28;20201;-87
2021/12/24 10:42:06;;;;;;;7.55;6.10;;;;;;;11.24;63.50;96315.94;5003218;28;20646;-87
2021/12/24 10:44:35;;;;;;;9.70;6.65;;;;;;;11.33;64.02;96316.19;4969751;28;20248;-87
2021/12/24 10:47:10;;;;;;;10.80;6.63;;;;;;;11.15;63.91;96301.94;4959951;28;20582;-87
2021/12/24 10:54:56;;;;;;;9.75;6.53;;;;;;;11.18;64.34;96312.59;4993472;28;20262;-87
2021/12/24 10:57:26;;;;;;;8.80;6.32;;;;;;;11.39;63.98;96308.03;4998182;28;20180;-87
2021/12/24 10:59:56;;;;;;;10.18;7.13;;;;;;;11.43;63.39;96306.47;4955461;28;20193;-87
2021/12/24 11:02:27;;;;;;;9.45;6.18;;;;;;;11.25;63.68;96307.09;4989657;28;20163;-87
2021/12/24 11:04:53;;;;;;;8.68;5.65;;;;;;;11.42;63.80;96304.91;4965247;28;20175;-86
2021/12/24 11:07:41;;;;;;;10.05;5.40;;;;;;;11.33;63.63;96308.38;4970138;28;20328;-86
2021/12/24 11:10:19;;;;;;;9.90;5.65;;;;;;;11.31;63.71;96311.25;4971166;28;20279;-86
2021/12/24 11:12:54;;;;;;;7.60;5.50;;;;;;;11.44;63.56;96305.41;4978032;28;20625;-86
2021/12/24 11:15:32;;;;;;;9.50;6.05;;;;;;;11.41;63.64;96302.56;4975172;28;20478;-86
2021/12/24 11:18:22;;;;;;;8.18;5.97;;;;;;;11.24;64.04;96285.47;4960099;28;20225;-87
2021/12/24 11:20:59;;;;;;;8.23;5.70;;;;;;;11.27;64.48;96283.38;4969823;28;20215;-86
2021/12/24 11:23:26;;;;;;;7.13;5.15;;;;;;;11.49;64.00;96273.31;4964278;28;20272;-86
2021/12/24 11:25:57;;;;;;;7.07;5.55;;;;;;;11.47;63.97;96272.03;4973017;28;20705;-86
2021/12/24 11:28:24;;;;;;;7.18;5.22;;;;;;;11.59;63.93;96283.66;4991772;28;20166;-86
2021/12/24 11:30:54;;;;;;;6.30;4.82;;;;;;;11.61;64.30;96262.53;4971407;28;20706;-85
2021/12/24 11:33:22;;;;;;;6.57;5.00;;;;;;;11.61;64.52;96272.97;5002467;28;20160;-86
2021/12/24 11:35:49;;;;;;;7.05;4.97;;;;;;;11.56;64.33;96257.38;4983673;28;20756;-85
2021/12/24 11:38:17;;;;;;;6.75;5.25;;;;;;;11.52;64.24;96258.97;4967747;28;20216;-85
2021/12/24 11:40:46;;;;;;;6.65;5.00;;;;;;;11.63;64.11;96260.44;4950318;28;20202;-85
2021/12/24 11:43:12;;;;;;;8.77;6.05;;;;;;;11.57;64.55;96253.72;4988103;28;20298;-85
2021/12/24 11:45:37;;;;;;;8.43;5.72;;;;;;;11.59;64.19;96254.22;4995682;28;20178;-85
2021/12/24 11:48:03;;;;;;;11.98;6.53;;;;;;;11.50;63.86;96253.22;4965859;28;20201;-85
2021/12/24 11:50:30;;;;;;;13.13;6.90;;;;;;;11.54;64.15;96243.84;4971559;28;20223;-85
2021/12/24 11:52:58;;;;;;;10.68;7.57;;;;;;;11.64;64.26;96251.56;4963380;28;20180;-85
2021/12/24 11:55:26;;;;;;;10.85;7.65;;;;;;;11.60;63.99;96242.72;4980707;28;20143;-85
2021/12/24 11:57:54;;;;;;;11.35;7.15;;;;;;;11.56;64.42;96226.09;4985373;28;20205;-85
2021/12/24 12:00:26;;;;;;;10.63;7.50;;;;;;;11.54;64.15;96233.41;4978580;28;20198;-85
2021/12/24 12:02:52;;;;;;;11.05;7.75;;;;;;;11.59;64.67;96238.59;4972645;28;20207;-85
2021/12/24 12:05:23;;;;;;;10.25;6.57;;;;;;;11.69;64.37;96227.28;4972583;28;20215;-85
2021/12/24 12:07:50;;;;;;;21.92;8.70;;;;;;;11.35;64.73;96228.84;4973859;28;20190;-84
2021/12/24 12:11:08;;;;;;;11.40;7.38;;;;;;;11.09;65.36;96228.25;4980346;28;20381;-86
2021/12/24 12:13:36;;;;;;;11.70;7.93;;;;;;;11.47;64.00;96231.09;4966245;28;20663;-85
2021/12/24 12:16:02;;;;;;;10.65;7.22;;;;;;;11.48;64.70;96216.25;4986400;28;20312;-84
2021/12/24 12:18:33;;;;;;;12.05;7.70;;;;;;;11.34;64.29;96224.69;4971583;28;20349;-85
2021/12/24 12:21:20;;;;;;;16.27;8.32;;;;;;;11.27;65.32;96219.00;4971755;28;20286;-85
2021/12/24 12:24:56;;;;;;;15.00;7.53;;;;;;;11.43;65.01;96214.47;4981966;28;20320;-84
2021/12/24 12:26:43;;;;;;;14.65;7.15;;;;;;;11.32;64.79;96208.53;4996798;28;20214;-85
2021/12/24 12:29:37;;;;;;;15.20;7.95;;;;;;;11.33;64.79;96214.56;4978956;28;20581;-84
2021/12/24 12:32:04;;;;;;;10.77;6.85;;;;;;;11.54;64.71;96210.72;4988430;28;20332;-84
2021/12/24 12:34:38;;;;;;;13.60;8.23;;;;;;;11.41;65.42;96208.72;4974101;28;20383;-84
2021/12/24 12:37:11;;;;;;;12.63;8.00;;;;;;;11.52;64.60;96215.44;4999144;28;20249;-84
2021/12/24 12:39:36;;;;;;;15.25;7.93;;;;;;;11.60;64.44;96209.63;4974853;28;20635;-84
2021/12/24 12:42:02;;;;;;;14.02;7.97;;;;;;;11.47;64.70;96206.88;4988877;28;20189;-84
2021/12/24 12:44:28;;;;;;;14.25;8.15;;;;;;;11.58;64.75;96205.72;4976083;28;20347;-84
2021/12/24 12:47:09;;;;;;;12.00;7.85;;;;;;;11.36;65.43;96198.34;4957041;28;20180;-84
2021/12/24 12:49:35;;;;;;;32.45;9.02;;;;;;;11.62;64.91;96185.91;4953516;28;20326;-84
2021/12/24 12:52:07;;;;;;;12.65;7.10;;;;;;;11.50;64.94;96191.47;4967275;28;20320;-84
2021/12/24 12:54:35;;;;;;;29.70;8.38;;;;;;;11.56;64.99;96184.38;4956869;28;20262;-84
2021/12/24 12:57:16;;;;;;;14.82;7.00;;;;;;;11.56;65.19;96184.38;4972628;28;20210;-83
2021/12/24 13:00:07;;;;;;;12.18;7.38;;;;;;;11.40;65.26;96175.91;4968385;28;20666;-84
2021/12/24 13:05:31;;;;;;;23.95;7.60;;;;;;;11.65;64.81;96166.31;5014307;28;20306;-84
2021/12/24 13:08:00;;;;;;;13.73;6.82;;;;;;;11.69;64.89;96168.09;4967285;28;20418;-84
2021/12/24 13:10:26;;;;;;;15.13;7.18;;;;;;;11.83;64.58;96170.81;4953109;28;20202;-84
2021/12/24 13:12:59;;;;;;;10.05;6.18;;;;;;;11.43;64.88;96170.94;4980694;28;20348;-84
2021/12/24 13:15:25;;;;;;;16.25;6.68;;;;;;;11.68;64.96;96169.13;4972239;28;20128;-83
2021/12/24 13:17:50;;;;;;;11.13;6.80;;;;;;;11.70;64.98;96167.03;4988710;28;20193;-83
2021/12/24 13:20:33;;;;;;;10.23;5.97;;;;;;;11.76;64.87;96159.94;4989982;28;20269;-82
2021/12/24 13:22:58;;;;;;;10.88;6.38;;;;;;;11.80;64.56;96166.91;4997006;28;20647;-84
2021/12/24 13:25:24;;;;;;;10.35;6.35;;;;;;;11.85;64.69;96167.94;4969167;28;20156;-82